Oceanis — SVBC9 — position and weather

sailwx.info

Track history (hours):
 
Tides and Currents Weather Stations Pressure Air Temp Water Temp Dewpoint Dewpoint Depression Visibility Wind Speed Wind Dir Waves Ship Positions

Oceanis

Last reported at 2016-May-26 19:33 UTC. Time now 2016-Jul-27 23:06 UTC.
Position N 02°01' E 102°10'.
Warning: this ship's position is months out of date.

Length 330 m; draft 11.1 m.

Type: Tanker. MMSI: 241089000.

Date/timePositionNaut miles runAvg speedWind from/ knotsBaromVisibWave heightAir tempDewpointWater temp
2016-May-26 19:33N 02°01' E 102°10'1514.9
2016-May-26 18:33N 01°54' E 102°23'1414.3
2016-May-26 17:33N 01°48' E 102°36'1513.4
2016-May-26 16:26N 01°41' E 102°50'4213.5
2016-May-26 13:20N 01°16' E 103°24'1215.5
2016-May-26 12:33N 01°12' E 103°35'1414.4
2016-May-26 11:33N 01°11' E 103°49'1515.3
2016-May-26 10:33N 01°17' E 104°03'2 0.3
2016-May-26 03:24N 01°18' E 104°05'0 0.1
2016-May-26 02:12N 01°18' E 104°05'0 0.0
2016-May-25 17:03N 01°18' E 104°05'0 0.1
2016-May-25 11:33N 01°18' E 104°05'0 0.0
2016-May-25 06:33N 01°18' E 104°05'0 0.1
2016-May-25 00:32N 01°18' E 104°06'3 3.0
2016-May-24 23:33N 01°17' E 104°09'  
2016-May-17 08:33N 22°18' E 120°15'1110.6
2016-May-17 07:33N 22°29' E 120°18'0 0.4
2016-May-17 06:32N 22°28' E 120°18'0 0.0
2016-May-17 05:26N 22°28' E 120°18'0 0.0
2016-May-17 04:26N 22°28' E 120°18'0 0.0
2016-May-17 03:08N 22°28' E 120°17'0 0.0
2016-May-17 02:26N 22°28' E 120°17'0 0.0
2016-May-17 01:32N 22°28' E 120°17'0 0.1
2016-May-17 00:32N 22°28' E 120°18'0 0.1
2016-May-16 23:32N 22°28' E 120°17'0 0.0
2016-May-16 22:26N 22°28' E 120°17'0 0.0
2016-May-16 21:26N 22°28' E 120°17'0 0.0
2016-May-16 20:32N 22°28' E 120°17'  
Track history (hours):
 
Tides and Currents Weather Stations Pressure Air Temp Water Temp Dewpoint Dewpoint Depression Visibility Wind Speed Wind Dir Waves Ship Positions

Oceanis

Last reported at 2016-May-26 19:33 UTC. Time now 2016-Jul-27 23:06 UTC.
Position N 02°01' E 102°10'.
Warning: this ship's position is months out of date.

Length 330 m; draft 11.1 m.

Type: Tanker. MMSI: 241089000.

Date/timePositionNaut miles runAvg speedWind from/ knotsBaromVisibWave heightAir tempDewpointWater temp
2016-May-26 19:33N 02°01' E 102°10'1514.9
2016-May-26 18:33N 01°54' E 102°23'1414.3
2016-May-26 17:33N 01°48' E 102°36'1513.4
2016-May-26 16:26N 01°41' E 102°50'4213.5
2016-May-26 13:20N 01°16' E 103°24'1215.5
2016-May-26 12:33N 01°12' E 103°35'1414.4
2016-May-26 11:33N 01°11' E 103°49'1515.3
2016-May-26 10:33N 01°17' E 104°03'2 0.3
2016-May-26 03:24N 01°18' E 104°05'0 0.1
2016-May-26 02:12N 01°18' E 104°05'0 0.0
2016-May-25 17:03N 01°18' E 104°05'0 0.1
2016-May-25 11:33N 01°18' E 104°05'0 0.0
2016-May-25 06:33N 01°18' E 104°05'0 0.1
2016-May-25 00:32N 01°18' E 104°06'3 3.0
2016-May-24 23:33N 01°17' E 104°09'  
2016-May-17 08:33N 22°18' E 120°15'1110.6
2016-May-17 07:33N 22°29' E 120°18'0 0.4
2016-May-17 06:32N 22°28' E 120°18'0 0.0
2016-May-17 05:26N 22°28' E 120°18'0 0.0
2016-May-17 04:26N 22°28' E 120°18'0 0.0
2016-May-17 03:08N 22°28' E 120°17'0 0.0
2016-May-17 02:26N 22°28' E 120°17'0 0.0
2016-May-17 01:32N 22°28' E 120°17'0 0.1
2016-May-17 00:32N 22°28' E 120°18'0 0.1
2016-May-16 23:32N 22°28' E 120°17'0 0.0
2016-May-16 22:26N 22°28' E 120°17'0 0.0
2016-May-16 21:26N 22°28' E 120°17'0 0.0
2016-May-16 20:32N 22°28' E 120°17'  

Dump ship's entire track history